Time;durP1;ratioP1;P1;durP2;ratioP2;P2;SDS_P1;SDS_P2;PMS_P1;PMS_P2;Temp;Humidity;BMP_temperature;BMP_pressure;BME280_temperature;BME280_humidity;BME280_pressure;Samples;Min_cycle;Max_cycle;Signal;HPM_P1;HPM_P2
2024/04/01 00:02:12;;;;;;;11.55;5.32;;;;;;;11.47;100.00;99275.50;6278220;23;20053;-76
2024/04/01 00:05:14;;;;;;;13.18;5.18;;;;;;;11.45;100.00;99274.81;6209048;28;20084;-76
2024/04/01 00:08:20;;;;;;;15.82;6.35;;;;;;;11.43;100.00;99276.72;6201076;28;20050;-76
2024/04/01 00:11:21;;;;;;;14.75;6.38;;;;;;;11.36;100.00;99265.03;6219874;28;20133;-76
2024/04/01 00:14:22;;;;;;;17.15;5.55;;;;;;;11.33;100.00;99262.63;6230080;28;20050;-75
2024/04/01 00:17:23;;;;;;;22.52;6.65;;;;;;;11.33;100.00;99254.75;6215022;28;20100;-75
2024/04/01 00:20:24;;;;;;;18.83;6.65;;;;;;;11.32;100.00;99250.44;6209083;28;20045;-76
2024/04/01 00:23:27;;;;;;;13.57;5.90;;;;;;;11.31;100.00;99261.91;6222317;28;20046;-76
2024/04/01 00:26:28;;;;;;;13.38;5.70;;;;;;;11.32;100.00;99272.31;6230210;28;20069;-75
2024/04/01 00:29:28;;;;;;;21.83;7.35;;;;;;;11.35;100.00;99265.97;6229915;28;20052;-76
2024/04/01 00:32:32;;;;;;;10.95;6.18;;;;;;;11.32;100.00;99256.53;6229982;28;20077;-76
2024/04/01 00:35:38;;;;;;;12.50;6.38;;;;;;;11.30;100.00;99254.97;6227768;28;20089;-76
2024/04/01 00:38:40;;;;;;;14.32;5.43;;;;;;;11.30;100.00;99262.88;6229971;28;20149;-76
2024/04/01 00:41:42;;;;;;;12.38;6.03;;;;;;;11.31;100.00;99256.63;6229433;28;20339;-76
2024/04/01 00:44:43;;;;;;;13.15;6.93;;;;;;;11.30;100.00;99258.44;6229927;28;20076;-76
2024/04/01 00:47:44;;;;;;;23.52;7.85;;;;;;;11.31;100.00;99252.25;6229556;28;20053;-76
2024/04/01 00:50:48;;;;;;;18.02;6.55;;;;;;;11.35;100.00;99252.81;6229517;28;20053;-76
2024/04/01 00:53:52;;;;;;;14.10;6.60;;;;;;;11.47;100.00;99251.00;6226681;28;20061;-76
2024/04/01 00:56:53;;;;;;;17.55;6.70;;;;;;;11.49;100.00;99249.06;6229659;28;20484;-76
2024/04/01 00:59:54;;;;;;;18.35;8.07;;;;;;;11.50;100.00;99237.59;6229507;28;20050;-76
2024/04/01 01:02:55;;;;;;;16.98;7.28;;;;;;;11.53;100.00;99248.69;6229280;28;20057;-76
2024/04/01 01:05:56;;;;;;;15.63;8.15;;;;;;;11.55;100.00;99248.59;6229425;28;20046;-76
2024/04/01 01:08:59;;;;;;;19.73;7.65;;;;;;;11.58;100.00;99246.53;6228937;28;20453;-76
2024/04/01 01:11:59;;;;;;;18.08;7.82;;;;;;;11.62;100.00;99237.41;6213262;28;20091;-76
2024/04/01 01:15:01;;;;;;;15.50;7.35;;;;;;;11.67;100.00;99229.13;6225264;28;20438;-76
2024/04/01 01:18:01;;;;;;;22.35;7.88;;;;;;;11.72;100.00;99234.03;6229401;28;20432;-76
2024/04/01 01:21:03;;;;;;;16.52;7.13;;;;;;;11.69;100.00;99222.81;6213103;28;20053;-76
2024/04/01 01:24:05;;;;;;;15.65;7.22;;;;;;;11.72;100.00;99221.72;6221617;28;20121;-76
2024/04/01 01:27:06;;;;;;;18.30;7.10;;;;;;;11.72;100.00;99210.34;6228837;28;20084;-76
2024/04/01 01:30:14;;;;;;;14.77;7.10;;;;;;;11.69;100.00;99211.44;6228827;28;20050;-76
2024/04/01 01:33:16;;;;;;;17.98;8.50;;;;;;;11.62;100.00;99197.94;6223966;28;20461;-76
2024/04/01 01:36:17;;;;;;;14.95;7.15;;;;;;;11.62;100.00;99179.53;6228810;28;20435;-76
2024/04/01 01:39:19;;;;;;;20.48;8.48;;;;;;;11.56;100.00;99180.03;6228512;28;20049;-76
2024/04/01 01:42:20;;;;;;;15.98;6.95;;;;;;;11.57;100.00;99168.56;6228086;28;20053;-76
2024/04/01 01:45:21;;;;;;;25.42;7.40;;;;;;;11.55;100.00;99172.28;6228483;28;20427;-76
2024/04/01 01:48:22;;;;;;;22.58;9.02;;;;;;;11.45;100.00;99168.75;6228282;28;20053;-75
2024/04/01 01:51:23;;;;;;;16.08;6.85;;;;;;;11.47;100.00;99174.72;6227977;28;20350;-76
2024/04/01 01:54:25;;;;;;;18.73;7.72;;;;;;;11.46;100.00;99171.25;6222430;28;20046;-76
2024/04/01 01:57:28;;;;;;;17.75;7.35;;;;;;;11.49;100.00;99181.53;6227988;28;20362;-75
2024/04/01 02:00:28;;;;;;;16.42;7.60;;;;;;;11.49;100.00;99178.91;6227746;28;20370;-76
2024/04/01 02:03:29;;;;;;;18.75;9.07;;;;;;;11.46;100.00;99188.84;6227862;28;20050;-76
2024/04/01 02:06:30;;;;;;;18.17;8.82;;;;;;;11.44;100.00;99191.56;6227871;28;20056;-75
2024/04/01 02:09:33;;;;;;;24.63;9.23;;;;;;;11.49;100.00;99194.69;6227972;28;20042;-75
2024/04/01 02:12:34;;;;;;;19.42;8.57;;;;;;;11.46;100.00;99196.72;6224738;28;20050;-75
2024/04/01 02:15:35;;;;;;;16.92;8.65;;;;;;;11.46;100.00;99200.19;6227713;28;20438;-76
2024/04/01 02:18:36;;;;;;;17.60;8.25;;;;;;;11.49;100.00;99193.81;6227883;28;20041;-76
2024/04/01 02:21:37;;;;;;;21.48;9.63;;;;;;;11.42;100.00;99191.69;6227405;28;20042;-76
2024/04/01 02:24:39;;;;;;;23.13;10.23;;;;;;;11.45;100.00;99193.25;6227589;28;20099;-76
2024/04/01 02:27:41;;;;;;;24.13;9.82;;;;;;;11.43;100.00;99195.16;6227334;28;20559;-76
2024/04/01 02:30:41;;;;;;;18.35;8.90;;;;;;;11.39;100.00;99199.84;6227500;28;20057;-76
2024/04/01 02:33:42;;;;;;;17.38;8.68;;;;;;;11.38;100.00;99200.78;6215626;28;20327;-76
2024/04/01 02:36:43;;;;;;;15.13;8.02;;;;;;;11.37;100.00;99203.56;6206720;28;20062;-76
2024/04/01 02:39:45;;;;;;;19.63;8.20;;;;;;;11.42;100.00;99201.38;6217494;28;20053;-76
2024/04/01 02:42:46;;;;;;;18.20;8.65;;;;;;;11.41;100.00;99202.34;6222977;28;20057;-77
2024/04/01 02:45:47;;;;;;;16.92;8.50;;;;;;;11.38;100.00;99202.59;6223727;28;20045;-76
2024/04/01 02:48:48;;;;;;;17.85;8.50;;;;;;;11.34;100.00;99194.13;6210827;28;20057;-75
2024/04/01 02:51:49;;;;;;;17.92;8.05;;;;;;;11.30;100.00;99190.06;6213671;28;20050;-76
2024/04/01 02:54:51;;;;;;;20.08;9.55;;;;;;;11.25;100.00;99186.16;6211814;28;20057;-76
2024/04/01 02:57:52;;;;;;;19.00;8.60;;;;;;;11.21;100.00;99187.34;6208563;28;20050;-76
2024/04/01 03:00:53;;;;;;;18.65;7.50;;;;;;;11.21;100.00;99176.84;6226486;28;20050;-76
2024/04/01 03:03:58;;;;;;;14.20;7.28;;;;;;;11.15;100.00;99175.53;6221493;28;20049;-75
2024/04/01 03:07:00;;;;;;;20.23;7.80;;;;;;;11.12;100.00;99160.84;6210253;28;20100;-76
2024/04/01 03:10:02;;;;;;;21.23;9.70;;;;;;;11.07;100.00;99154.28;6202273;28;20046;-76
2024/04/01 03:13:05;;;;;;;14.98;8.10;;;;;;;11.07;100.00;99155.13;6224661;28;20050;-76
2024/04/01 03:16:07;;;;;;;13.85;7.10;;;;;;;11.09;100.00;99150.59;6218521;28;20132;-76
2024/04/01 03:19:07;;;;;;;20.50;8.27;;;;;;;11.04;100.00;99142.25;6208003;28;20061;-76
2024/04/01 03:22:09;;;;;;;15.80;8.15;;;;;;;11.08;100.00;99148.06;6215982;28;20058;-75
2024/04/01 03:25:11;;;;;;;19.65;9.05;;;;;;;11.04;100.00;99138.78;6226061;28;20352;-76
2024/04/01 03:28:12;;;;;;;17.52;8.77;;;;;;;11.03;100.00;99137.91;6225926;28;20367;-76
2024/04/01 03:31:12;;;;;;;23.13;9.15;;;;;;;11.02;100.00;99130.16;6226009;28;20246;-75
2024/04/01 03:34:14;;;;;;;22.15;10.48;;;;;;;10.98;100.00;99129.56;6206384;28;20053;-75
2024/04/01 03:37:15;;;;;;;17.23;7.97;;;;;;;10.98;100.00;99136.63;6219666;28;20046;-75
2024/04/01 03:40:19;;;;;;;23.92;8.95;;;;;;;10.96;100.00;99136.75;6225621;28;20336;-75
2024/04/01 03:43:20;;;;;;;16.30;7.82;;;;;;;10.96;100.00;99123.63;6225778;28;20474;-75
2024/04/01 03:46:22;;;;;;;16.23;8.45;;;;;;;10.96;100.00;99130.69;6224835;28;20494;-75
2024/04/01 03:49:22;;;;;;;18.00;8.25;;;;;;;10.93;100.00;99126.50;6216248;28;20058;-75
2024/04/01 03:52:23;;;;;;;15.50;8.07;;;;;;;10.88;100.00;99126.03;6212085;28;20466;-75
2024/04/01 03:55:26;;;;;;;17.73;7.38;;;;;;;10.83;100.00;99134.28;6225560;28;20048;-75
2024/04/01 03:58:26;;;;;;;13.77;7.45;;;;;;;10.79;100.00;99140.72;6206469;28;20046;-74
2024/04/01 04:01:31;;;;;;;14.05;7.22;;;;;;;10.76;100.00;99148.84;6204000;28;20053;-75
2024/04/01 04:04:31;;;;;;;16.50;8.13;;;;;;;10.72;100.00;99138.72;6225464;28;20532;-75
2024/04/01 04:07:32;;;;;;;16.20;8.13;;;;;;;10.72;100.00;99144.81;6219769;28;20050;-75
2024/04/01 04:10:35;;;;;;;16.38;7.03;;;;;;;10.72;100.00;99138.72;6221400;28;20371;-75
2024/04/01 04:13:35;;;;;;;16.10;8.15;;;;;;;10.66;100.00;99130.38;6225390;28;20045;-75
2024/04/01 04:16:37;;;;;;;20.48;7.78;;;;;;;10.60;100.00;99132.66;6225543;28;20462;-77
2024/04/01 04:19:37;;;;;;;18.75;7.50;;;;;;;10.60;100.00;99128.25;6225362;28;20050;-77
2024/04/01 04:22:39;;;;;;;16.25;8.07;;;;;;;10.59;100.00;99129.19;6225037;28;20074;-77
2024/04/01 04:25:41;;;;;;;15.57;7.43;;;;;;;10.57;100.00;99123.22;6225413;28;20046;-77
2024/04/01 04:28:42;;;;;;;16.63;8.15;;;;;;;10.57;100.00;99120.59;6225198;28;20357;-77
2024/04/01 04:31:52;;;;;;;17.88;7.50;;;;;;;10.58;100.00;99117.03;6221433;28;20057;-77
2024/04/01 04:34:52;;;;;;;16.38;8.07;;;;;;;10.58;100.00;99108.28;6223935;28;20053;-77
2024/04/01 04:37:54;;;;;;;18.38;8.80;;;;;;;10.61;100.00;99101.00;6225174;28;20050;-77
2024/04/01 04:40:57;;;;;;;14.88;8.27;;;;;;;10.61;100.00;99080.00;6224997;28;20052;-75
2024/04/01 04:43:58;;;;;;;19.58;8.93;;;;;;;10.61;100.00;99074.72;6225135;28;20370;-75
2024/04/01 04:46:59;;;;;;;19.20;8.98;;;;;;;10.62;100.00;99076.41;6224927;28;20054;-77
2024/04/01 04:50:00;;;;;;;19.30;9.95;;;;;;;10.68;100.00;99075.09;6225059;28;20049;-76
2024/04/01 04:53:01;;;;;;;17.98;8.48;;;;;;;10.72;100.00;99068.63;6218115;28;20057;-75
2024/04/01 04:56:05;;;;;;;17.20;8.48;;;;;;;10.72;100.00;99058.13;6225905;28;20331;-77
2024/04/01 04:59:05;;;;;;;17.08;9.20;;;;;;;10.72;100.00;99059.88;6229420;28;20358;-77
2024/04/01 05:02:07;;;;;;;19.17;9.43;;;;;;;10.69;100.00;99065.41;6229014;28;20084;-77
2024/04/01 05:05:08;;;;;;;20.08;9.45;;;;;;;10.66;100.00;99051.56;6229391;28;20177;-77
2024/04/01 05:08:09;;;;;;;21.83;8.88;;;;;;;10.64;100.00;99060.53;6229116;28;20058;-77
2024/04/01 05:11:12;;;;;;;17.88;8.32;;;;;;;10.64;100.00;99053.47;6228929;28;20049;-77
2024/04/01 05:14:12;;;;;;;25.77;9.63;;;;;;;10.57;100.00;99059.34;6221976;28;20061;-77
2024/04/01 05:17:14;;;;;;;16.17;8.07;;;;;;;10.55;100.00;99064.72;6229191;28;20366;-77
2024/04/01 05:20:14;;;;;;;20.30;9.45;;;;;;;10.60;100.00;99064.34;6220230;28;20050;-77
2024/04/01 05:23:15;;;;;;;13.57;7.55;;;;;;;10.62;100.00;99059.81;6228986;28;20049;-77
2024/04/01 05:26:18;;;;;;;15.88;7.93;;;;;;;10.69;100.00;99068.03;6228775;28;20366;-77
2024/04/01 05:29:19;;;;;;;13.77;8.25;;;;;;;10.70;100.00;99056.56;6228647;28;20397;-77
2024/04/01 05:32:20;;;;;;;15.95;8.68;;;;;;;10.73;100.00;99054.53;6218098;28;20042;-77
2024/04/01 05:35:21;;;;;;;14.52;7.82;;;;;;;10.78;100.00;99059.41;6222411;28;20351;-77
2024/04/01 05:38:23;;;;;;;14.95;8.40;;;;;;;10.76;100.00;99062.16;6226131;28;20046;-77
2024/04/01 05:41:25;;;;;;;19.40;8.23;;;;;;;10.74;100.00;99068.50;6222931;28;20061;-77
2024/04/01 05:44:26;;;;;;;24.60;9.77;;;;;;;10.75;100.00;99054.41;6228372;28;20072;-77
2024/04/01 05:47:27;;;;;;;23.90;9.35;;;;;;;10.74;100.00;99061.44;6228145;28;20046;-77
2024/04/01 05:50:27;;;;;;;21.85;9.85;;;;;;;10.64;100.00;99068.41;6228130;28;20053;-77
2024/04/01 05:53:29;;;;;;;17.88;9.45;;;;;;;10.63;100.00;99067.59;6226116;28;20046;-77
2024/04/01 05:56:31;;;;;;;15.85;8.07;;;;;;;10.69;100.00;99076.75;6227942;28;20512;-77
2024/04/01 05:59:32;;;;;;;15.40;7.75;;;;;;;10.70;100.00;99086.28;6228056;28;20046;-77
2024/04/01 06:02:33;;;;;;;16.45;7.78;;;;;;;10.82;100.00;99087.13;6241942;23;20052;-74
2024/04/01 06:05:34;;;;;;;17.38;8.05;;;;;;;10.76;100.00;99092.84;6250310;28;20050;-74
2024/04/01 06:08:35;;;;;;;20.55;9.60;;;;;;;10.80;100.00;99091.66;6265509;28;20052;-74
2024/04/01 06:11:37;;;;;;;17.67;9.00;;;;;;;10.81;100.00;99096.78;6265040;28;20045;-74
2024/04/01 06:14:38;;;;;;;18.00;9.18;;;;;;;10.85;100.00;99108.69;6253882;28;20052;-74
2024/04/01 06:17:40;;;;;;;15.65;7.78;;;;;;;10.89;100.00;99098.78;6252070;28;20553;-73
2024/04/01 06:20:40;;;;;;;14.45;7.90;;;;;;;10.92;100.00;99103.78;6246373;28;20441;-75
2024/04/01 06:23:41;;;;;;;19.02;10.05;;;;;;;10.90;100.00;99106.56;6252306;28;20053;-72
2024/04/01 06:26:44;;;;;;;19.70;9.27;;;;;;;10.88;100.00;99120.78;6245999;28;20350;-73
2024/04/01 06:29:44;;;;;;;15.07;9.00;;;;;;;10.87;100.00;99127.81;6251791;28;20056;-74
2024/04/01 06:32:46;;;;;;;20.35;9.15;;;;;;;10.88;100.00;99121.59;6237145;28;20394;-74
2024/04/01 06:35:47;;;;;;;26.30;9.80;;;;;;;10.89;100.00;99119.81;6251179;28;20053;-74
2024/04/01 06:38:48;;;;;;;18.50;8.95;;;;;;;10.90;100.00;99108.31;6252263;28;20045;-74
2024/04/01 06:41:51;;;;;;;15.05;8.63;;;;;;;10.93;100.00;99102.84;6233972;28;20042;-74
2024/04/01 06:44:54;;;;;;;22.85;9.68;;;;;;;10.84;100.00;99098.31;6235892;28;20053;-74
2024/04/01 06:47:55;;;;;;;21.65;10.00;;;;;;;10.84;100.00;99086.00;6251320;28;20056;-73
2024/04/01 06:50:58;;;;;;;20.60;9.93;;;;;;;10.83;100.00;99092.22;6247083;28;20054;-75
2024/04/01 06:53:59;;;;;;;23.00;11.85;;;;;;;10.77;100.00;99082.22;6242425;28;20057;-74
2024/04/01 06:57:02;;;;;;;18.08;9.75;;;;;;;10.75;100.00;99078.03;6242393;28;20054;-75
2024/04/01 07:00:05;;;;;;;23.20;10.68;;;;;;;10.74;100.00;99081.63;6243574;28;20054;-77
2024/04/01 07:03:06;;;;;;;18.35;9.13;;;;;;;10.74;100.00;99079.00;6234759;28;20054;-75
2024/04/01 07:06:07;;;;;;;28.48;12.07;;;;;;;10.68;100.00;99079.50;6251106;28;20458;-75
2024/04/01 07:09:08;;;;;;;20.92;10.23;;;;;;;10.69;100.00;99081.19;6250986;28;20054;-75
2024/04/01 07:12:11;;;;;;;20.10;10.60;;;;;;;10.78;100.00;99091.78;6230383;28;20431;-75
2024/04/01 07:15:12;;;;;;;28.73;12.25;;;;;;;10.69;100.00;99100.41;6241577;28;20362;-74
2024/04/01 07:18:14;;;;;;;25.15;12.07;;;;;;;10.58;100.00;99137.19;6245433;28;20050;-74
2024/04/01 07:21:14;;;;;;;22.50;11.85;;;;;;;10.56;100.00;99171.47;6226671;28;20050;-74
2024/04/01 07:24:15;;;;;;;22.48;11.57;;;;;;;10.54;100.00;99152.38;6249853;28;20111;-74
2024/04/01 07:27:17;;;;;;;29.52;12.35;;;;;;;10.58;100.00;99116.16;6250633;28;20046;-75
2024/04/01 07:30:19;;;;;;;21.33;10.23;;;;;;;10.48;100.00;99104.72;6250200;28;20045;-75
2024/04/01 07:33:19;;;;;;;21.65;11.23;;;;;;;10.35;100.00;99084.69;6238839;28;20060;-74
2024/04/01 07:36:20;;;;;;;28.55;12.75;;;;;;;10.25;100.00;99067.16;6249626;28;20053;-74
2024/04/01 07:39:21;;;;;;;24.17;11.32;;;;;;;10.34;100.00;99069.88;6247562;28;20441;-74
2024/04/01 07:42:24;;;;;;;29.80;11.77;;;;;;;10.42;100.00;99079.78;6250088;28;20041;-76
2024/04/01 07:45:24;;;;;;;29.20;13.00;;;;;;;10.29;100.00;99077.28;6248089;28;20053;-76
2024/04/01 07:48:25;;;;;;;24.58;12.82;;;;;;;10.37;100.00;99072.28;6250227;28;20469;-75
2024/04/01 07:51:27;;;;;;;21.90;10.77;;;;;;;10.35;100.00;99075.97;6242040;28;20060;-76
2024/04/01 07:54:28;;;;;;;21.40;11.10;;;;;;;10.42;100.00;99082.41;6250060;28;20045;-75
2024/04/01 07:57:31;;;;;;;25.42;11.65;;;;;;;10.45;100.00;99083.97;6250103;28;20056;-76
2024/04/01 08:00:31;;;;;;;26.70;11.23;;;;;;;10.53;100.00;99087.63;6250056;28;20045;-76
2024/04/01 08:03:33;;;;;;;27.80;12.82;;;;;;;10.45;100.00;99089.22;6249818;28;20126;-77
2024/04/01 08:06:33;;;;;;;27.10;12.73;;;;;;;10.33;100.00;99085.78;6220157;28;20046;-76
2024/04/01 08:09:35;;;;;;;23.33;11.15;;;;;;;10.40;100.00;99097.44;6228232;28;20056;-76
2024/04/01 08:12:36;;;;;;;22.00;10.73;;;;;;;10.41;100.00;99102.59;6224169;28;20438;-75
2024/04/01 08:15:38;;;;;;;19.15;10.45;;;;;;;10.54;100.00;99091.97;6225226;28;20497;-75
2024/04/01 08:18:38;;;;;;;24.17;12.52;;;;;;;10.58;100.00;99077.63;6230801;28;20057;-74
2024/04/01 08:21:39;;;;;;;36.00;17.83;;;;;;;10.53;100.00;99064.00;6215554;28;20335;-74
2024/04/01 08:24:40;;;;;;;35.13;18.95;;;;;;;10.55;100.00;99072.59;6219607;28;20072;-74
2024/04/01 08:27:43;;;;;;;27.02;14.98;;;;;;;10.69;100.00;99076.75;6222336;28;20054;-74
2024/04/01 08:30:43;;;;;;;28.02;14.93;;;;;;;10.72;100.00;99076.50;6224242;28;20053;-75
2024/04/01 08:33:44;;;;;;;34.10;14.85;;;;;;;10.73;100.00;99078.19;6238048;28;20053;-75
2024/04/01 08:36:45;;;;;;;27.58;13.50;;;;;;;10.76;100.00;99077.91;6227638;28;20461;-74
2024/04/01 08:39:46;;;;;;;30.15;13.77;;;;;;;10.81;100.00;99082.78;6216538;28;20053;-74
2024/04/01 08:42:53;;;;;;;25.25;13.35;;;;;;;10.82;100.00;99105.50;6227634;28;20449;-74
2024/04/01 08:45:55;;;;;;;24.88;12.50;;;;;;;10.89;100.00;99098.78;6236092;28;20060;-74
2024/04/01 08:49:01;;;;;;;26.65;11.07;;;;;;;10.96;100.00;99099.97;6241330;28;20073;-75
2024/04/01 08:52:03;;;;;;;29.75;13.88;;;;;;;11.05;100.00;99093.97;6245060;28;20048;-73
2024/04/01 08:55:05;;;;;;;28.10;14.07;;;;;;;11.04;100.00;99089.66;6248934;28;20092;-76
2024/04/01 08:58:08;;;;;;;33.13;13.43;;;;;;;10.98;100.00;99097.19;6254013;28;20123;-74
2024/04/01 09:01:08;;;;;;;23.80;12.02;;;;;;;10.98;100.00;99105.09;6234000;28;20052;-74
2024/04/01 09:04:10;;;;;;;24.10;11.60;;;;;;;10.85;100.00;99103.44;6249777;28;20357;-75
2024/04/01 09:07:15;;;;;;;24.13;10.73;;;;;;;10.90;100.00;99103.06;6241123;28;20461;-75
2024/04/01 09:10:18;;;;;;;24.40;11.70;;;;;;;10.92;100.00;99099.38;6218805;28;20525;-75
2024/04/01 09:13:21;;;;;;;25.73;13.50;;;;;;;10.91;100.00;99091.63;6233107;28;20042;-75
2024/04/01 09:16:22;;;;;;;28.00;12.93;;;;;;;10.87;100.00;99083.16;6219317;28;20050;-75
2024/04/01 09:19:24;;;;;;;26.95;12.50;;;;;;;10.98;100.00;99082.25;6210082;28;20050;-75
2024/04/01 09:22:24;;;;;;;31.10;13.57;;;;;;;11.05;100.00;99087.88;6219166;28;20049;-75
2024/04/01 09:25:25;;;;;;;22.35;11.63;;;;;;;11.07;100.00;99078.03;6234361;28;20507;-75
2024/04/01 09:28:27;;;;;;;27.45;13.07;;;;;;;11.15;100.00;99065.94;6231256;28;20053;-75
2024/04/01 09:31:29;;;;;;;25.48;13.07;;;;;;;11.14;100.00;99066.09;6238107;28;20056;-75
2024/04/01 09:34:30;;;;;;;24.23;12.30;;;;;;;11.21;100.00;99061.13;6236753;28;20037;-76
2024/04/01 09:37:31;;;;;;;26.67;13.05;;;;;;;11.28;100.00;99052.63;6231031;28;20056;-76
2024/04/01 09:40:32;;;;;;;25.90;14.02;;;;;;;11.29;100.00;99043.75;6229520;28;20053;-76
2024/04/01 09:43:35;;;;;;;22.48;11.63;;;;;;;11.34;100.00;99043.38;6227682;28;20046;-76
2024/04/01 09:46:36;;;;;;;25.40;12.80;;;;;;;11.37;100.00;99053.66;6239061;28;20046;-75
2024/04/01 09:49:40;;;;;;;26.88;12.30;;;;;;;11.48;100.00;99045.69;6247746;28;20132;-75
2024/04/01 09:52:41;;;;;;;21.42;11.65;;;;;;;11.59;100.00;99050.06;6226044;28;20355;-75
2024/04/01 09:56:06;;;;;;;26.38;11.55;;;;;;;11.64;100.00;99058.38;6232557;28;20319;-75
2024/04/01 09:59:39;;;;;;;26.88;12.55;;;;;;;11.80;100.00;99053.47;6225428;28;20057;-76
2024/04/01 10:03:16;;;;;;;23.30;9.63;;;;;;;11.92;100.00;99049.81;6224719;28;20046;-76
2024/04/01 10:06:57;;;;;;;22.63;10.27;;;;;;;11.96;100.00;99058.28;6214360;28;20047;-77
2024/04/01 10:10:12;;;;;;;22.77;11.18;;;;;;;11.84;100.00;99054.91;6210966;28;20042;-75
2024/04/01 10:13:48;;;;;;;17.92;9.80;;;;;;;11.82;100.00;99048.09;6218061;28;20042;-75
2024/04/01 10:17:26;;;;;;;15.13;8.93;;;;;;;11.76;100.00;99041.53;6222192;28;20053;-75
2024/04/01 10:21:06;;;;;;;21.17;10.25;;;;;;;11.79;100.00;99033.38;6217057;28;20056;-75
2024/04/01 10:24:32;;;;;;;21.20;10.07;;;;;;;12.10;100.00;99038.66;6217755;28;20056;-76
2024/04/01 10:28:04;;;;;;;17.85;9.88;;;;;;;11.96;100.00;99041.66;6221490;28;20132;-76
2024/04/01 10:31:41;;;;;;;17.92;8.60;;;;;;;11.99;100.00;99050.13;6221977;28;20042;-76
2024/04/01 10:35:14;;;;;;;15.73;8.95;;;;;;;12.18;100.00;99041.47;6231779;28;20046;-75
2024/04/01 10:38:46;;;;;;;18.67;7.68;;;;;;;12.21;100.00;99054.34;6217732;28;20470;-76
2024/04/01 10:42:22;;;;;;;20.30;8.30;;;;;;;12.16;100.00;99062.66;6240322;28;20458;-75
2024/04/01 10:45:57;;;;;;;16.02;7.78;;;;;;;12.09;100.00;99065.97;6216898;28;20045;-76
2024/04/01 10:49:26;;;;;;;16.92;7.88;;;;;;;11.91;100.00;99061.31;6223835;28;20050;-76
2024/04/01 10:52:52;;;;;;;21.00;8.43;;;;;;;11.91;100.00;99065.75;6222286;28;20359;-75
2024/04/01 10:56:27;;;;;;;14.68;7.55;;;;;;;11.80;100.00;99060.53;6214667;28;20046;-76
2024/04/01 11:00:05;;;;;;;29.40;8.50;;;;;;;11.75;100.00;99062.72;6218453;28;20374;-76
2024/04/01 11:03:41;;;;;;;23.85;9.82;;;;;;;11.85;100.00;99066.25;6213980;28;20056;-76
2024/04/01 11:07:19;;;;;;;15.98;8.48;;;;;;;11.98;100.00;99066.88;6215106;28;20073;-76
2024/04/01 11:10:29;;;;;;;18.40;8.63;;;;;;;11.80;100.00;99069.25;6219533;28;20124;-76
2024/04/01 11:13:37;;;;;;;17.73;8.07;;;;;;;11.82;100.00;99058.63;6210537;28;20054;-76
2024/04/01 11:16:41;;;;;;;23.02;9.40;;;;;;;11.86;100.00;99058.25;6217183;28;20049;-76
2024/04/01 11:20:04;;;;;;;14.25;9.05;;;;;;;11.88;100.00;99055.47;6224893;28;20046;-75
2024/04/01 11:23:28;;;;;;;13.63;8.30;;;;;;;11.80;100.00;99048.19;6232069;28;20082;-77
2024/04/01 11:26:50;;;;;;;16.05;8.65;;;;;;;11.76;100.00;99065.22;6227953;28;20455;-74
2024/04/01 11:30:10;;;;;;;18.63;9.25;;;;;;;11.80;100.00;99055.25;6232001;28;20151;-74
2024/04/01 11:33:16;;;;;;;14.88;8.63;;;;;;;11.88;100.00;99051.03;6221825;28;20050;-77
2024/04/01 11:36:26;;;;;;;16.83;8.60;;;;;;;11.80;100.00;99055.25;6235648;28;20361;-74
2024/04/01 11:39:29;;;;;;;33.53;18.33;;;;;;;11.78;100.00;99051.94;6221495;28;20042;-77
2024/04/01 11:42:32;;;;;;;15.68;9.65;;;;;;;11.83;100.00;99058.50;6219659;28;20046;-76
2024/04/01 11:45:39;;;;;;;22.98;9.63;;;;;;;11.67;100.00;99053.69;6221838;28;20069;-74
2024/04/01 11:48:39;;;;;;;19.02;8.85;;;;;;;11.66;100.00;99045.91;6218078;28;20101;-74
2024/04/01 11:51:41;;;;;;;25.50;9.77;;;;;;;11.54;100.00;99050.44;6216336;28;20438;-73
2024/04/01 11:54:42;;;;;;;17.77;9.35;;;;;;;11.59;100.00;99044.78;6214603;28;20046;-74
2024/04/01 11:57:43;;;;;;;19.75;10.90;;;;;;;11.56;100.00;99045.03;6215188;28;20042;-75
2024/04/01 12:00:56;;;;;;;24.08;11.80;;;;;;;11.50;100.00;99056.91;6214754;28;20057;-75
2024/04/01 12:03:57;;;;;;;23.50;11.73;;;;;;;11.49;100.00;99060.53;6223293;28;20042;-74
2024/04/01 12:07:00;;;;;;;27.52;13.18;;;;;;;11.51;100.00;99063.84;6232266;28;20613;-74
2024/04/01 12:10:04;;;;;;;24.73;12.23;;;;;;;11.43;100.00;99069.72;6197596;28;20069;-75
2024/04/01 12:13:09;;;;;;;22.80;12.52;;;;;;;11.48;100.00;99063.25;6194485;28;20047;-77
2024/04/01 12:16:13;;;;;;;19.23;11.63;;;;;;;11.48;100.00;99077.25;6182606;28;20370;-75
2024/04/01 12:19:15;;;;;;;24.05;13.15;;;;;;;11.41;100.00;99082.19;6193895;28;20051;-75
2024/04/01 12:22:16;;;;;;;29.23;13.05;;;;;;;11.40;100.00;99087.59;6193904;28;20359;-81
2024/04/01 12:25:17;;;;;;;28.98;13.73;;;;;;;11.39;100.00;99092.00;6211464;28;20050;-80
2024/04/01 12:28:19;;;;;;;30.55;14.38;;;;;;;11.37;100.00;99087.84;6201414;28;20086;-81
2024/04/01 12:31:25;;;;;;;33.30;15.48;;;;;;;11.36;100.00;99097.53;6192438;28;20443;-79
2024/04/01 12:34:27;;;;;;;32.75;15.32;;;;;;;11.37;100.00;99103.63;6202210;28;20050;-80
2024/04/01 12:37:29;;;;;;;32.33;15.18;;;;;;;11.35;100.00;99103.72;6196008;28;20073;-79
2024/04/01 12:40:42;;;;;;;35.17;17.35;;;;;;;11.27;100.00;99107.97;6211122;28;20047;-81
2024/04/01 12:43:44;;;;;;;26.52;15.07;;;;;;;11.22;100.00;99105.72;6196961;28;20046;-81
2024/04/01 12:46:50;;;;;;;29.48;15.48;;;;;;;11.23;100.00;99120.53;6199960;28;20470;-81
2024/04/01 12:49:51;;;;;;;33.75;17.70;;;;;;;11.25;100.00;99120.41;6206934;28;20054;-80
2024/04/01 12:53:06;;;;;;;29.23;15.90;;;;;;;11.21;100.00;99126.88;6198074;28;20351;-81
2024/04/01 12:56:21;;;;;;;28.67;15.52;;;;;;;11.23;100.00;99133.69;6185989;28;20058;-81
2024/04/01 12:59:30;;;;;;;34.20;17.55;;;;;;;11.27;100.00;99136.91;6185136;28;20051;-81
2024/04/01 13:02:48;;;;;;;;;;;;;;;11.23;100.00;99146.84;6197697;28;20085;-81
2024/04/01 13:06:03;;;;;;;34.33;17.77;;;;;;;11.18;100.00;99149.00;6209120;28;20239;-81
2024/04/01 13:09:10;;;;;;;34.75;17.75;;;;;;;11.20;100.00;99143.63;6203752;28;20058;-82
2024/04/01 13:12:25;;;;;;;37.88;19.17;;;;;;;11.25;100.00;99157.22;6204864;28;20446;-81
2024/04/01 13:15:33;;;;;;;36.42;18.15;;;;;;;11.18;100.00;99155.09;6206640;28;20084;-81
2024/04/01 13:18:44;;;;;;;35.25;18.25;;;;;;;11.18;100.00;99162.16;6207362;28;20125;-82
2024/04/01 13:21:52;;;;;;;35.42;16.83;;;;;;;11.21;100.00;99166.31;6208214;28;20050;-82
2024/04/01 13:24:59;;;;;;;28.75;15.68;;;;;;;11.15;100.00;99167.66;6206590;28;20070;-82
2024/04/01 13:28:05;;;;;;;26.48;14.57;;;;;;;11.11;100.00;99176.75;6200641;28;20081;-83
2024/04/01 13:31:18;;;;;;;29.75;16.52;;;;;;;11.04;100.00;99179.03;6193829;28;20084;-84
2024/04/01 13:34:25;;;;;;;27.92;14.88;;;;;;;11.10;100.00;99188.22;6208113;28;20050;-81
2024/04/01 13:37:32;;;;;;;29.10;14.38;;;;;;;11.15;100.00;99189.53;6202402;28;20051;-82
2024/04/01 13:40:43;;;;;;;27.63;15.32;;;;;;;11.23;100.00;99194.16;6212255;28;20132;-80
2024/04/01 13:43:58;;;;;;;27.20;16.23;;;;;;;11.22;100.00;99200.38;6212042;28;20074;-82
2024/04/01 13:47:15;;;;;;;28.02;14.07;;;;;;;11.21;100.00;99197.88;6202357;28;20085;-83
2024/04/01 13:50:24;;;;;;;23.75;12.48;;;;;;;11.21;100.00;99196.06;6196813;28;20050;-83
2024/04/01 13:53:40;;;;;;;24.33;14.65;;;;;;;11.23;100.00;99198.59;6204212;28;20377;-80
2024/04/01 13:57:07;;;;;;;27.08;14.10;;;;;;;11.22;100.00;99210.91;6185133;28;20059;-84
2024/04/01 14:00:19;;;;;;;27.30;14.73;;;;;;;11.24;100.00;99208.97;6196080;28;20438;-80
2024/04/01 14:03:35;;;;;;;30.17;15.00;;;;;;;11.16;100.00;99214.84;6201924;28;20043;-82
2024/04/01 14:06:52;;;;;;;29.30;14.23;;;;;;;11.08;100.00;99219.91;6197913;28;20050;-81
2024/04/01 14:10:03;;;;;;;19.63;10.93;;;;;;;11.03;100.00;99224.66;6189974;28;20054;-84